Time;durP1;ratioP1;P1;durP2;ratioP2;P2;SDS_P1;SDS_P2;PMS_P1;PMS_P2;Temp;Humidity;BMP_temperature;BMP_pressure;BME280_temperature;BME280_humidity;BME280_pressure;Samples;Min_cycle;Max_cycle;Signal;HPM_P1;HPM_P2
2024/03/13 00:01:53;;;;;;;0.70;0.70;;;;;;;7.42;50.77;92383.00;5013922;28;20088;-85
2024/03/13 00:04:19;;;;;;;1.27;0.85;;;;;;;7.43;50.93;92384.53;5014358;28;20061;-84
2024/03/13 00:06:45;;;;;;;0.82;0.80;;;;;;;7.41;50.95;92389.28;5026380;28;20034;-84
2024/03/13 00:09:12;;;;;;;0.70;0.70;;;;;;;7.41;50.96;92389.28;5011926;28;20118;-84
2024/03/13 00:11:40;;;;;;;3.33;0.90;;;;;;;7.38;51.28;92395.00;5013196;28;20485;-84
2024/03/13 00:14:06;;;;;;;1.17;0.90;;;;;;;7.24;51.96;92392.97;5013372;28;20037;-84
2024/03/13 00:16:32;;;;;;;0.98;0.90;;;;;;;7.17;52.54;92400.28;5006749;28;20393;-85
2024/03/13 00:18:58;;;;;;;2.63;0.90;;;;;;;7.06;54.22;92399.56;5012353;28;20535;-84
2024/03/13 00:21:26;;;;;;;1.15;0.80;;;;;;;6.98;54.40;92397.50;5012244;28;20482;-85
2024/03/13 00:23:52;;;;;;;0.77;0.77;;;;;;;6.97;53.65;92392.56;5008136;28;20644;-84
2024/03/13 00:26:24;;;;;;;0.95;0.90;;;;;;;6.91;54.17;92385.81;5012923;28;20514;-84
2024/03/13 00:28:50;;;;;;;0.70;0.70;;;;;;;6.92;54.41;92382.19;5012741;28;20044;-84
2024/03/13 00:31:16;;;;;;;1.38;0.88;;;;;;;6.93;54.14;92381.91;5012595;28;20116;-84
2024/03/13 00:33:41;;;;;;;0.65;0.65;;;;;;;7.03;54.26;92373.28;5011505;28;20481;-84
2024/03/13 00:36:10;;;;;;;0.70;0.70;;;;;;;6.99;54.58;92375.63;5028993;28;20037;-83
2024/03/13 00:38:35;;;;;;;0.70;0.70;;;;;;;7.02;54.09;92371.72;5010580;28;20022;-84
2024/03/13 00:41:01;;;;;;;0.80;0.80;;;;;;;7.04;54.06;92374.84;5013573;28;20029;-84
2024/03/13 00:43:27;;;;;;;0.82;0.82;;;;;;;7.11;54.65;92371.94;5026649;28;20220;-84
2024/03/13 00:45:53;;;;;;;1.05;0.73;;;;;;;7.12;54.31;92366.47;5007985;28;20488;-84
2024/03/13 00:48:20;;;;;;;0.70;0.70;;;;;;;7.13;53.09;92368.03;5012296;28;20088;-84
2024/03/13 00:50:48;;;;;;;0.68;0.68;;;;;;;7.09;53.35;92367.00;5010480;28;20412;-84
2024/03/13 00:53:14;;;;;;;0.60;0.60;;;;;;;7.01;54.98;92357.16;5008377;28;20121;-84
2024/03/13 00:55:40;;;;;;;2.10;0.90;;;;;;;6.91;57.62;92370.19;5011302;28;20468;-84
2024/03/13 00:58:08;;;;;;;0.93;0.85;;;;;;;6.84;57.76;92371.25;5010971;28;20030;-84
2024/03/13 01:00:37;;;;;;;0.80;0.80;;;;;;;6.77;59.50;92375.97;5012411;28;20026;-84
2024/03/13 01:03:03;;;;;;;0.65;0.65;;;;;;;6.68;60.63;92367.16;5008448;28;20111;-84
2024/03/13 01:05:31;;;;;;;0.80;0.80;;;;;;;6.61;61.03;92364.03;5009683;28;20120;-84
2024/03/13 01:07:57;;;;;;;0.60;0.60;;;;;;;6.55;62.15;92367.69;5008625;28;20125;-84
2024/03/13 01:10:24;;;;;;;0.85;0.85;;;;;;;6.50;63.54;92376.28;5008635;28;20425;-83
2024/03/13 01:12:50;;;;;;;1.42;0.90;;;;;;;6.45;63.05;92374.47;5008385;28;20048;-83
2024/03/13 01:15:17;;;;;;;0.70;0.70;;;;;;;6.43;63.01;92370.59;5012492;28;20033;-84
2024/03/13 01:17:43;;;;;;;1.08;0.98;;;;;;;6.38;62.78;92368.78;5005001;28;20032;-84
2024/03/13 01:20:14;;;;;;;4.10;0.80;;;;;;;6.43;62.78;92371.34;5016379;28;20038;-84
2024/03/13 01:22:43;;;;;;;0.88;0.88;;;;;;;6.42;64.67;92362.00;5009662;28;20034;-84
2024/03/13 01:25:10;;;;;;;1.00;0.90;;;;;;;6.39;65.12;92362.53;5008043;28;20054;-84
2024/03/13 01:27:37;;;;;;;0.90;0.90;;;;;;;6.36;66.91;92362.28;5012329;28;20054;-84
2024/03/13 01:30:03;;;;;;;0.80;0.80;;;;;;;6.33;65.91;92363.59;5025498;28;20046;-83
2024/03/13 01:32:28;;;;;;;0.82;0.73;;;;;;;6.32;66.58;92356.81;5005669;28;20473;-84
2024/03/13 01:34:54;;;;;;;1.02;0.90;;;;;;;6.30;67.49;92356.28;5022885;28;20168;-84
2024/03/13 01:40:06;;;;;;;1.55;1.00;;;;;;;6.24;69.93;92367.75;5006610;28;20042;-84
2024/03/13 01:57:12;;;;;;;0.85;0.80;;;;;;;6.20;70.67;92335.53;5004781;28;20428;-83
2024/03/13 01:59:49;;;;;;;0.95;0.85;;;;;;;6.21;70.38;92348.28;5012687;28;20041;-83
2024/03/13 02:02:24;;;;;;;1.52;0.95;;;;;;;6.20;69.70;92343.31;5002532;28;20525;-84
2024/03/13 02:04:51;;;;;;;0.60;0.60;;;;;;;6.25;68.38;92351.13;5004780;28;20119;-84
2024/03/13 02:07:23;;;;;;;0.93;0.73;;;;;;;6.25;67.85;92348.50;5028557;28;20120;-84
2024/03/13 02:09:49;;;;;;;0.60;0.60;;;;;;;6.21;67.16;92337.06;5011904;28;20037;-85
2024/03/13 02:12:15;;;;;;;0.73;0.73;;;;;;;6.27;67.08;92340.47;5012216;28;20052;-84
2024/03/13 02:14:41;;;;;;;0.70;0.70;;;;;;;6.29;67.04;92343.59;5004603;28;20050;-84
2024/03/13 02:17:06;;;;;;;1.35;0.80;;;;;;;6.30;68.33;92340.69;5023418;28;20042;-84
2024/03/13 02:19:39;;;;;;;1.20;0.90;;;;;;;6.28;69.74;92342.00;5025345;28;20449;-84
2024/03/13 02:22:06;;;;;;;0.88;0.80;;;;;;;6.25;68.98;92338.13;5012588;28;20168;-84
2024/03/13 02:24:33;;;;;;;0.75;0.70;;;;;;;6.23;68.47;92345.41;5013101;28;20045;-84
2024/03/13 02:27:00;;;;;;;1.85;0.82;;;;;;;6.21;68.44;92342.28;5013326;28;20094;-84
2024/03/13 02:29:26;;;;;;;0.68;0.68;;;;;;;6.21;69.70;92337.06;5014009;28;20048;-83
2024/03/13 02:31:51;;;;;;;1.02;0.90;;;;;;;6.20;69.92;92343.31;5012618;28;20029;-84
2024/03/13 02:34:20;;;;;;;1.27;0.82;;;;;;;6.16;70.13;92340.47;5010522;28;20076;-84
2024/03/13 02:36:47;;;;;;;0.88;0.88;;;;;;;6.18;68.79;92348.00;5018047;28;20029;-84
2024/03/13 02:39:19;;;;;;;0.57;0.57;;;;;;;6.30;66.91;92345.91;5025925;28;20105;-83
2024/03/13 02:41:45;;;;;;;0.65;0.65;;;;;;;6.39;66.00;92349.53;5011638;28;20133;-84
2024/03/13 02:44:11;;;;;;;0.82;0.70;;;;;;;6.57;64.48;92339.59;5007563;28;20097;-83
2024/03/13 02:46:37;;;;;;;0.90;0.80;;;;;;;6.60;64.90;92344.28;5009810;28;20088;-84
2024/03/13 02:49:02;;;;;;;0.68;0.68;;;;;;;6.70;64.85;92339.03;5010179;28;20525;-84
2024/03/13 02:51:28;;;;;;;0.75;0.75;;;;;;;6.67;65.12;92340.34;5013733;28;20123;-84
2024/03/13 02:53:53;;;;;;;0.60;0.60;;;;;;;6.60;65.49;92345.06;5009521;28;20462;-84
2024/03/13 02:56:19;;;;;;;0.73;0.68;;;;;;;6.59;65.06;92342.72;5026687;28;20040;-84
2024/03/13 02:58:46;;;;;;;0.60;0.60;;;;;;;6.53;65.56;92339.38;5013827;28;20038;-84
2024/03/13 03:01:12;;;;;;;0.60;0.60;;;;;;;6.49;67.39;92342.75;5030788;28;20057;-84
2024/03/13 03:03:39;;;;;;;0.70;0.70;;;;;;;6.41;67.79;92342.25;5015237;28;20124;-84
2024/03/13 03:06:08;;;;;;;0.75;0.75;;;;;;;6.34;68.16;92344.34;5010227;28;20042;-84
2024/03/13 03:08:37;;;;;;;0.73;0.73;;;;;;;6.23;68.12;92340.19;5015152;28;20089;-84
2024/03/13 03:11:03;;;;;;;0.75;0.73;;;;;;;6.11;69.90;92331.91;5015355;28;20038;-84
2024/03/13 03:13:30;;;;;;;0.68;0.68;;;;;;;6.07;71.83;92342.03;5000984;28;20128;-84
2024/03/13 03:15:55;;;;;;;0.70;0.70;;;;;;;6.00;72.01;92344.13;5013708;28;20061;-84
2024/03/13 03:18:22;;;;;;;0.73;0.70;;;;;;;5.93;72.22;92341.75;5025612;28;20068;-83
2024/03/13 03:20:47;;;;;;;0.70;0.70;;;;;;;5.88;73.30;92341.75;5012460;28;20046;-83
2024/03/13 03:23:14;;;;;;;0.60;0.60;;;;;;;5.82;73.38;92343.56;5012473;28;20550;-84
2024/03/13 03:25:40;;;;;;;0.90;0.70;;;;;;;5.89;73.01;92343.31;5012705;28;20077;-83
2024/03/13 03:28:06;;;;;;;0.98;0.80;;;;;;;5.89;74.04;92347.72;5012960;28;20513;-85
2024/03/13 03:30:31;;;;;;;0.70;0.70;;;;;;;5.82;75.50;92356.56;5009892;28;20034;-84
2024/03/13 03:32:58;;;;;;;0.88;0.88;;;;;;;5.82;73.00;92348.75;5011939;28;20603;-84
2024/03/13 03:35:24;;;;;;;0.75;0.75;;;;;;;5.83;73.41;92346.94;5009088;28;20041;-83
2024/03/13 03:37:51;;;;;;;0.60;0.60;;;;;;;5.82;73.87;92340.97;5006969;28;20029;-84
2024/03/13 03:40:17;;;;;;;0.68;0.68;;;;;;;5.76;74.45;92338.63;5003412;28;20533;-85
2024/03/13 03:42:42;;;;;;;0.77;0.70;;;;;;;5.73;74.67;92342.53;5013602;28;20080;-84
2024/03/13 03:45:09;;;;;;;0.80;0.80;;;;;;;5.76;75.28;92351.63;5015079;28;20468;-85
2024/03/13 03:47:35;;;;;;;1.58;0.70;;;;;;;5.78;75.49;92349.53;5014942;28;20117;-84
2024/03/13 03:50:01;;;;;;;0.63;0.63;;;;;;;5.83;74.45;92349.53;5015039;28;20057;-84
2024/03/13 03:52:27;;;;;;;0.75;0.75;;;;;;;5.86;73.94;92349.03;5013741;28;20026;-83
2024/03/13 03:54:52;;;;;;;0.60;0.60;;;;;;;5.91;73.16;92350.84;5015219;28;20064;-83
2024/03/13 03:57:19;;;;;;;0.68;0.68;;;;;;;6.00;72.67;92351.91;5014067;28;20025;-83
2024/03/13 03:59:45;;;;;;;0.50;0.50;;;;;;;6.05;73.08;92350.09;5012959;28;20038;-84
2024/03/13 04:02:16;;;;;;;0.70;0.70;;;;;;;6.10;71.41;92335.53;5012088;28;20025;-83
2024/03/13 04:04:43;;;;;;;1.20;0.70;;;;;;;6.16;71.82;92321.50;5010950;28;20046;-83
2024/03/13 04:07:11;;;;;;;0.60;0.60;;;;;;;6.29;71.41;92341.75;5010136;28;20493;-84
2024/03/13 04:09:37;;;;;;;0.60;0.60;;;;;;;6.41;71.91;92336.25;5009261;28;20057;-84
2024/03/13 04:12:02;;;;;;;0.60;0.60;;;;;;;6.39;73.95;92336.53;5011769;28;20032;-84
2024/03/13 04:14:28;;;;;;;0.70;0.70;;;;;;;6.32;73.46;92343.81;5010501;28;20034;-84
2024/03/13 04:16:54;;;;;;;1.30;0.70;;;;;;;6.24;73.86;92337.34;5007263;28;20026;-84
2024/03/13 04:19:21;;;;;;;0.80;0.77;;;;;;;6.19;74.08;92344.34;5009832;28;20050;-84
2024/03/13 04:21:47;;;;;;;0.60;0.60;;;;;;;6.15;74.69;92338.91;5025706;28;20030;-84
2024/03/13 04:24:13;;;;;;;0.70;0.70;;;;;;;6.17;75.14;92341.22;5013962;28;20185;-84
2024/03/13 04:26:43;;;;;;;0.65;0.65;;;;;;;6.17;74.82;92346.44;5027328;28;20080;-84
2024/03/13 04:29:10;;;;;;;2.80;0.70;;;;;;;6.17;75.23;92346.44;5012720;28;20048;-84
2024/03/13 04:31:39;;;;;;;0.60;0.60;;;;;;;6.18;75.52;92343.59;5012283;28;20034;-83
2024/03/13 04:34:07;;;;;;;0.60;0.60;;;;;;;6.16;76.91;92337.88;5010895;28;20090;-83
2024/03/13 04:36:38;;;;;;;0.50;0.50;;;;;;;6.18;76.41;92328.00;5027903;28;20026;-83
2024/03/13 04:39:05;;;;;;;0.65;0.63;;;;;;;6.21;76.15;92330.06;5010558;28;20556;-84
2024/03/13 04:41:33;;;;;;;0.60;0.60;;;;;;;6.20;77.62;92338.91;5014301;28;20375;-84
2024/03/13 04:44:00;;;;;;;0.60;0.60;;;;;;;6.17;79.88;92334.25;5011400;28;20057;-84
2024/03/13 04:46:26;;;;;;;0.55;0.55;;;;;;;6.15;79.27;92345.94;5010150;28;20101;-84
2024/03/13 04:48:52;;;;;;;0.80;0.80;;;;;;;6.11;79.34;92340.47;5014164;28;20041;-84
2024/03/13 04:51:18;;;;;;;0.73;0.68;;;;;;;6.09;78.56;92334.75;5013167;28;20053;-83
2024/03/13 04:53:43;;;;;;;1.35;0.90;;;;;;;6.09;79.73;92344.38;5011950;28;20026;-83
2024/03/13 04:56:11;;;;;;;0.60;0.60;;;;;;;6.02;80.99;92335.03;5013385;28;20045;-83
2024/03/13 04:58:37;;;;;;;0.55;0.55;;;;;;;5.98;82.45;92338.41;5011309;28;20327;-82
2024/03/13 05:01:03;;;;;;;1.33;0.82;;;;;;;5.88;83.86;92339.16;5010814;28;20065;-81
2024/03/13 05:03:30;;;;;;;0.50;0.50;;;;;;;5.87;83.95;92347.97;5006805;28;20037;-82
2024/03/13 05:05:56;;;;;;;0.60;0.60;;;;;;;5.81;84.65;92349.03;5006939;28;20406;-81
2024/03/13 05:08:22;;;;;;;1.20;0.80;;;;;;;5.77;85.85;92342.81;5002014;28;20446;-82
2024/03/13 05:10:47;;;;;;;0.70;0.70;;;;;;;5.73;85.63;92352.16;5002430;28;20038;-81
2024/03/13 05:13:15;;;;;;;0.60;0.60;;;;;;;5.67;86.52;92366.16;5004282;28;20098;-82
2024/03/13 05:15:41;;;;;;;0.60;0.60;;;;;;;5.56;86.65;92358.38;5007798;28;20026;-80
2024/03/13 05:18:07;;;;;;;0.80;0.80;;;;;;;5.50;86.63;92356.78;5001933;28;20049;-82
2024/03/13 05:20:33;;;;;;;1.67;0.75;;;;;;;5.43;86.72;92359.66;5001474;28;20042;-80
2024/03/13 05:23:01;;;;;;;0.68;0.68;;;;;;;5.35;87.32;92354.16;5003676;28;20583;-81
2024/03/13 05:25:27;;;;;;;0.70;0.70;;;;;;;5.36;87.79;92364.31;5005811;28;20132;-82
2024/03/13 05:27:53;;;;;;;0.70;0.70;;;;;;;5.36;85.30;92368.72;4998084;28;20122;-80
2024/03/13 05:30:19;;;;;;;0.70;0.70;;;;;;;5.35;84.91;92365.31;5002459;28;20029;-81
2024/03/13 05:32:44;;;;;;;0.60;0.60;;;;;;;5.35;85.47;92367.16;5005980;28;20089;-81
2024/03/13 05:35:12;;;;;;;0.70;0.70;;;;;;;5.32;85.54;92372.88;5002069;28;20034;-81
2024/03/13 05:37:39;;;;;;;1.60;0.80;;;;;;;5.21;88.54;92365.03;5004814;28;20145;-79
2024/03/13 05:40:26;;;;;;;0.70;0.70;;;;;;;5.18;89.04;92373.34;5005719;28;20056;-80
2024/03/13 05:42:51;;;;;;;2.58;0.77;;;;;;;5.14;90.03;92377.47;5006988;28;20058;-79
2024/03/13 05:45:18;;;;;;;0.70;0.70;;;;;;;5.11;91.54;92374.59;5007784;28;20041;-80
2024/03/13 05:47:43;;;;;;;0.65;0.60;;;;;;;5.05;90.81;92373.81;5001635;28;20061;-79
2024/03/13 05:50:12;;;;;;;1.05;0.70;;;;;;;5.02;90.89;92371.72;5023343;28;20022;-80
2024/03/13 05:52:38;;;;;;;0.70;0.70;;;;;;;4.99;90.93;92385.19;5019505;28;20042;-80
2024/03/13 05:55:04;;;;;;;0.73;0.73;;;;;;;4.98;91.08;92387.03;5008169;28;20297;-82
2024/03/13 05:57:30;;;;;;;0.82;0.60;;;;;;;5.00;91.29;92391.97;5002879;28;20066;-79
2024/03/13 05:59:55;;;;;;;0.65;0.60;;;;;;;5.01;90.94;92388.31;5006133;28;20037;-82
2024/03/13 06:02:21;;;;;;;0.60;0.60;;;;;;;5.02;91.03;92389.88;5006738;28;20165;-81
2024/03/13 06:04:46;;;;;;;0.63;0.63;;;;;;;5.03;90.72;92375.09;5002762;28;20022;-81
2024/03/13 06:07:12;;;;;;;0.82;0.70;;;;;;;5.07;90.85;92376.94;5004060;28;20032;-80
2024/03/13 06:09:37;;;;;;;0.77;0.77;;;;;;;5.42;88.26;92381.44;5002674;28;20030;-80
2024/03/13 06:12:03;;;;;;;0.90;0.70;;;;;;;5.59;88.05;92372.66;5001577;28;20034;-80
2024/03/13 06:14:29;;;;;;;1.40;1.00;;;;;;;6.27;85.88;92377.63;5006296;28;20034;-84
2024/03/13 06:16:54;;;;;;;1.23;0.80;;;;;;;7.07;79.52;92374.31;5002462;28;20126;-81
2024/03/13 06:19:20;;;;;;;0.60;0.60;;;;;;;7.98;71.41;92377.44;5017962;28;20428;-81
2024/03/13 06:21:46;;;;;;;1.77;0.95;;;;;;;8.87;66.91;92377.19;5003745;28;20034;-83
2024/03/13 06:24:12;;;;;;;1.15;0.88;;;;;;;9.74;61.85;92376.09;5007642;28;20053;-82
2024/03/13 06:26:40;;;;;;;0.90;0.90;;;;;;;10.87;56.29;92379.56;5005713;28;20042;-83
2024/03/13 06:31:50;;;;;;;1.00;0.80;;;;;;;12.65;49.98;92381.31;5002823;28;20449;-82
2024/03/13 06:34:17;;;;;;;0.88;0.80;;;;;;;13.41;47.88;92381.19;5005107;28;20030;-81
2024/03/13 06:36:42;;;;;;;0.73;0.73;;;;;;;13.94;45.59;92379.44;5008988;28;20564;-82
2024/03/13 06:39:09;;;;;;;1.70;0.90;;;;;;;14.14;43.87;92378.03;5009511;28;20120;-80
2024/03/13 06:41:37;;;;;;;0.95;0.73;;;;;;;14.68;41.99;92383.75;5009319;28;20033;-81
2024/03/13 06:44:05;;;;;;;1.35;0.75;;;;;;;15.33;42.42;92384.47;5010565;28;20033;-83
2024/03/13 06:46:33;;;;;;;3.10;0.77;;;;;;;16.03;41.62;92384.84;5011509;28;20048;-83
2024/03/13 06:48:58;;;;;;;0.55;0.55;;;;;;;16.63;39.54;92385.41;5006522;28;20472;-83
2024/03/13 06:51:24;;;;;;;0.60;0.60;;;;;;;16.51;37.88;92381.97;5010724;28;20037;-83
2024/03/13 06:53:49;;;;;;;0.75;0.60;;;;;;;16.81;37.91;92386.06;4992311;28;20064;-82
2024/03/13 06:56:16;;;;;;;0.85;0.50;;;;;;;17.87;36.74;92379.19;5008398;28;20063;-82
2024/03/13 06:58:42;;;;;;;1.40;0.68;;;;;;;17.78;37.88;92394.41;5009609;28;20468;-83
2024/03/13 07:01:14;;;;;;;0.40;0.40;;;;;;;17.67;37.29;92383.50;5001797;28;21320;-83
2024/03/13 07:03:43;;;;;;;0.65;0.65;;;;;;;18.25;36.90;92382.53;5021257;28;20536;-83
2024/03/13 07:06:12;;;;;;;0.50;0.50;;;;;;;18.76;35.17;92382.78;5010414;28;20100;-82
2024/03/13 07:08:38;;;;;;;0.75;0.70;;;;;;;18.85;34.85;92383.44;5007741;28;20135;-82
2024/03/13 07:11:07;;;;;;;0.73;0.60;;;;;;;19.61;34.18;92380.75;5009683;28;20021;-82
2024/03/13 07:13:33;;;;;;;0.98;0.70;;;;;;;19.58;34.86;92384.06;5005493;28;20060;-83
2024/03/13 07:16:02;;;;;;;0.95;0.70;;;;;;;18.85;36.74;92380.78;5017640;28;20413;-82
2024/03/13 07:18:28;;;;;;;2.00;1.20;;;;;;;19.64;34.07;92390.66;5006116;28;20109;-82
2024/03/13 07:20:55;;;;;;;1.13;0.88;;;;;;;19.65;34.75;92388.75;5006979;28;20034;-82
2024/03/13 07:23:21;;;;;;;1.25;1.00;;;;;;;19.28;34.49;92386.41;5013304;28;20049;-81
2024/03/13 07:25:49;;;;;;;2.10;0.82;;;;;;;20.28;34.23;92396.63;5018145;28;20406;-82
2024/03/13 07:28:17;;;;;;;0.80;0.70;;;;;;;20.17;32.71;92399.06;5005713;28;20041;-82
2024/03/13 07:30:43;;;;;;;3.55;2.20;;;;;;;19.54;34.51;92383.19;5016252;28;20064;-82
2024/03/13 07:33:09;;;;;;;1.17;0.88;;;;;;;18.72;34.89;92387.22;4999109;28;20038;-81
2024/03/13 07:35:35;;;;;;;0.95;0.63;;;;;;;17.36;38.21;92399.94;4999326;28;20058;-82
2024/03/13 07:38:01;;;;;;;1.23;0.65;;;;;;;17.06;40.92;92412.56;5004301;28;20173;-81
2024/03/13 07:40:31;;;;;;;1.13;0.77;;;;;;;15.91;40.20;92394.56;4993357;28;20465;-81
2024/03/13 07:42:57;;;;;;;0.77;0.47;;;;;;;15.18;43.18;92398.94;4998151;28;20100;-82
2024/03/13 07:45:25;;;;;;;0.70;0.70;;;;;;;14.76;45.41;92392.69;5004459;28;20037;-81
2024/03/13 07:47:51;;;;;;;3.85;0.80;;;;;;;13.83;50.54;92407.88;4999133;28;20034;-80
2024/03/13 07:50:16;;;;;;;1.08;0.88;;;;;;;13.27;52.02;92404.94;4998119;28;20037;-82
2024/03/13 07:52:42;;;;;;;1.60;0.93;;;;;;;13.26;51.60;92421.00;4990493;28;20046;-81
2024/03/13 07:55:09;;;;;;;1.05;0.90;;;;;;;13.33;52.91;92410.88;5003930;28;20034;-80
2024/03/13 07:57:36;;;;;;;2.45;0.80;;;;;;;13.36;54.81;92409.47;5009721;28;20057;-80
2024/03/13 08:00:01;;;;;;;2.22;1.38;;;;;;;14.26;51.32;92411.63;5005521;28;20034;-80
2024/03/13 08:02:27;;;;;;;0.95;0.80;;;;;;;14.30;50.14;92421.25;4988454;28;20058;-82
2024/03/13 08:04:54;;;;;;;1.25;0.80;;;;;;;14.43;49.50;92414.25;4989892;28;20042;-82
2024/03/13 08:07:25;;;;;;;1.25;0.82;;;;;;;13.79;51.16;92421.97;4989609;28;20046;-82
2024/03/13 08:09:51;;;;;;;0.95;0.80;;;;;;;13.62;52.71;92414.78;4991595;28;20046;-81
2024/03/13 08:12:17;;;;;;;2.45;1.00;;;;;;;13.71;52.26;92412.97;4993730;28;20038;-81
2024/03/13 08:14:42;;;;;;;4.68;2.20;;;;;;;13.42;55.07;92427.44;4994754;28;20041;-81
2024/03/13 08:17:08;;;;;;;1.05;0.85;;;;;;;13.37;55.20;92427.56;5001473;28;20033;-81
2024/03/13 08:19:33;;;;;;;1.05;0.80;;;;;;;13.01;54.08;92428.47;5000098;28;20034;-82
2024/03/13 08:21:59;;;;;;;1.00;0.77;;;;;;;12.78;55.32;92434.84;4990220;28;20381;-81
2024/03/13 08:24:26;;;;;;;2.10;1.00;;;;;;;12.71;57.53;92433.41;4989975;28;20050;-82
2024/03/13 08:26:52;;;;;;;0.80;0.80;;;;;;;12.75;58.60;92440.69;5012393;28;20038;-82
2024/03/13 08:29:17;;;;;;;1.85;1.17;;;;;;;12.91;58.60;92434.00;5005121;28;20529;-80
2024/03/13 08:31:47;;;;;;;0.82;0.80;;;;;;;13.05;56.66;92447.81;4999020;28;20030;-81
2024/03/13 08:34:14;;;;;;;2.10;0.80;;;;;;;12.69;58.38;92443.44;5005173;28;20060;-81
2024/03/13 08:36:40;;;;;;;2.08;1.10;;;;;;;12.33;60.05;92447.97;5007482;28;20026;-81
2024/03/13 08:39:06;;;;;;;1.73;0.80;;;;;;;12.05;61.64;92448.84;4993999;28;20080;-81
2024/03/13 08:41:31;;;;;;;1.88;1.02;;;;;;;11.92;60.47;92451.50;5009922;28;20051;-81
2024/03/13 08:43:57;;;;;;;0.90;0.85;;;;;;;12.14;61.73;92454.16;5005730;28;20254;-82
2024/03/13 08:46:22;;;;;;;0.93;0.85;;;;;;;12.05;60.63;92438.34;5007477;28;20092;-83
2024/03/13 08:48:50;;;;;;;1.02;0.90;;;;;;;12.11;66.30;92444.25;5007270;28;20473;-81
2024/03/13 08:51:17;;;;;;;1.77;1.05;;;;;;;11.94;66.45;92451.97;5004982;28;20029;-82
2024/03/13 08:53:45;;;;;;;1.20;1.02;;;;;;;11.99;66.45;92451.84;5008703;28;20037;-82
2024/03/13 08:56:10;;;;;;;3.70;1.10;;;;;;;12.10;61.89;92458.44;5004928;28;20129;-81
2024/03/13 08:58:36;;;;;;;1.02;0.88;;;;;;;12.20;63.91;92455.59;5010681;28;20121;-81
2024/03/13 09:01:01;;;;;;;1.23;0.80;;;;;;;12.25;61.03;92460.75;5008282;28;20040;-81
2024/03/13 09:03:27;;;;;;;1.15;0.80;;;;;;;12.69;60.00;92469.69;5006336;28;20525;-80
2024/03/13 09:05:52;;;;;;;1.15;0.88;;;;;;;12.98;58.88;92471.13;5006440;28;20038;-81
2024/03/13 09:08:18;;;;;;;2.38;1.00;;;;;;;12.74;59.10;92473.28;5002283;28;20149;-80
2024/03/13 09:10:44;;;;;;;3.28;1.15;;;;;;;12.70;61.21;92479.16;5026118;28;20022;-80
2024/03/13 09:13:12;;;;;;;1.45;0.90;;;;;;;12.62;60.15;92477.22;5008757;28;20040;-81
2024/03/13 09:15:38;;;;;;;1.20;1.00;;;;;;;12.78;60.23;92476.88;5008972;28;20026;-82
2024/03/13 09:18:04;;;;;;;2.08;0.80;;;;;;;13.06;59.03;92475.66;5021507;28;20442;-81
2024/03/13 09:20:30;;;;;;;1.38;0.82;;;;;;;13.34;58.20;92478.13;5008789;28;20397;-81
2024/03/13 09:22:55;;;;;;;4.03;0.75;;;;;;;13.53;58.93;92475.25;5007404;28;20065;-82
2024/03/13 09:25:21;;;;;;;0.90;0.73;;;;;;;13.36;58.80;92475.97;5007060;28;20081;-81
2024/03/13 09:27:47;;;;;;;2.40;1.00;;;;;;;13.03;58.21;92478.09;5006343;28;20038;-81
2024/03/13 09:30:12;;;;;;;0.70;0.70;;;;;;;12.83;60.09;92482.00;5004724;28;20075;-81
2024/03/13 09:32:38;;;;;;;0.60;0.60;;;;;;;12.65;60.22;92484.53;5005383;28;20045;-81
2024/03/13 09:35:04;;;;;;;1.15;0.80;;;;;;;12.60;59.72;92487.25;5001220;28;20497;-81
2024/03/13 09:37:31;;;;;;;1.17;0.80;;;;;;;12.48;61.95;92490.41;5006425;28;20429;-81
2024/03/13 09:39:58;;;;;;;0.80;0.80;;;;;;;12.71;62.15;92483.31;5003809;28;20069;-81
2024/03/13 09:42:26;;;;;;;0.90;0.90;;;;;;;12.91;59.35;92486.53;5017150;28;20133;-81
2024/03/13 09:44:55;;;;;;;1.50;1.08;;;;;;;13.08;57.96;92497.16;5005031;28;20456;-81
2024/03/13 09:47:26;;;;;;;0.82;0.70;;;;;;;12.90;57.47;92479.72;5007883;28;20044;-80
2024/03/13 09:49:54;;;;;;;1.05;0.90;;;;;;;13.18;59.16;92492.72;5005874;28;20116;-81
2024/03/13 09:52:21;;;;;;;0.93;0.80;;;;;;;13.50;59.65;92487.16;4998934;28;20026;-81
2024/03/13 09:54:46;;;;;;;0.95;0.77;;;;;;;13.20;57.67;92495.81;5008759;28;20046;-81
2024/03/13 09:57:12;;;;;;;0.70;0.70;;;;;;;13.30;58.43;92498.22;5006479;28;20030;-82
2024/03/13 09:59:41;;;;;;;0.85;0.70;;;;;;;13.45;54.20;92497.06;5007203;28;20417;-81
2024/03/13 10:02:21;;;;;;;1.25;0.80;;;;;;;13.42;57.74;92501.06;5008143;28;20323;-82
2024/03/13 10:04:48;;;;;;;0.80;0.80;;;;;;;13.46;56.35;92507.25;5006974;28;20034;-82
2024/03/13 10:07:26;;;;;;;3.22;0.90;;;;;;;13.16;55.63;92508.00;5022823;28;20032;-82
2024/03/13 10:09:53;;;;;;;1.17;0.90;;;;;;;12.89;54.99;92507.84;5003180;28;20343;-81
2024/03/13 10:12:20;;;;;;;3.42;0.73;;;;;;;12.60;54.55;92508.25;4993913;28;20062;-81
2024/03/13 10:14:50;;;;;;;0.70;0.70;;;;;;;12.46;56.58;92507.53;5019319;28;20123;-81
2024/03/13 10:17:18;;;;;;;1.17;0.88;;;;;;;12.36;58.74;92510.38;5007814;28;20532;-81
2024/03/13 10:19:46;;;;;;;0.60;0.57;;;;;;;12.15;55.74;92502.94;5013571;28;20098;-81
2024/03/13 10:22:13;;;;;;;0.60;0.60;;;;;;;11.94;57.77;92509.69;5002431;28;20088;-81
2024/03/13 10:24:42;;;;;;;2.10;1.05;;;;;;;12.13;58.25;92510.31;4998782;28;20073;-81
2024/03/13 10:27:13;;;;;;;2.17;0.90;;;;;;;12.41;56.70;92510.28;5003456;28;20073;-81
2024/03/13 10:29:42;;;;;;;2.22;0.85;;;;;;;12.37;55.34;92510.09;5008851;28;20034;-81
2024/03/13 10:32:11;;;;;;;1.20;0.80;;;;;;;12.53;54.61;92505.28;5004981;28;20531;-81
2024/03/13 10:34:37;;;;;;;1.08;0.90;;;;;;;12.52;55.88;92503.72;5009245;28;20034;-81
2024/03/13 10:37:12;;;;;;;1.30;0.80;;;;;;;12.25;53.38;92513.22;5004636;28;20504;-81
2024/03/13 10:39:40;;;;;;;2.15;1.08;;;;;;;12.26;56.83;92516.63;4994167;28;20398;-81
2024/03/13 10:42:07;;;;;;;0.70;0.70;;;;;;;12.27;53.93;92518.97;4999536;28;20338;-82
2024/03/13 10:44:33;;;;;;;0.70;0.70;;;;;;;12.18;53.32;92518.09;5007073;28;20551;-82
2024/03/13 10:47:00;;;;;;;1.55;0.90;;;;;;;12.18;54.85;92515.47;5007013;28;20082;-82
2024/03/13 10:49:28;;;;;;;1.52;0.90;;;;;;;12.60;51.87;92518.75;4999886;28;20084;-82
2024/03/13 10:52:05;;;;;;;1.83;0.80;;;;;;;12.91;48.31;92520.69;5005017;28;20122;-83
2024/03/13 10:54:31;;;;;;;1.45;0.98;;;;;;;13.22;47.06;92512.06;5003902;28;20044;-82
2024/03/13 10:56:56;;;;;;;2.40;1.00;;;;;;;13.28;47.35;92516.13;5002758;28;20035;-80
2024/03/13 10:59:23;;;;;;;2.22;0.80;;;;;;;13.40;47.41;92516.38;5000669;28;20037;-82
2024/03/13 11:01:52;;;;;;;0.65;0.65;;;;;;;13.40;47.43;92512.97;5001729;28;20069;-80
2024/03/13 11:04:17;;;;;;;0.90;0.82;;;;;;;13.43;49.57;92518.38;4998058;28;20537;-81
2024/03/13 11:06:43;;;;;;;2.53;1.02;;;;;;;13.39;46.92;92506.91;5005486;28;20030;-81
2024/03/13 11:09:20;;;;;;;0.98;0.75;;;;;;;13.61;45.04;92521.09;5002761;28;20041;-81
2024/03/13 11:11:52;;;;;;;1.45;0.93;;;;;;;13.95;47.40;92513.31;5003602;28;20030;-81
2024/03/13 11:14:20;;;;;;;3.03;1.05;;;;;;;14.09;43.22;92522.94;5006148;28;20436;-81
2024/03/13 11:16:50;;;;;;;0.70;0.70;;;;;;;14.58;43.36;92511.25;5014696;28;20032;-81
2024/03/13 11:19:17;;;;;;;1.27;0.95;;;;;;;14.22;42.14;92519.41;5009976;28;20096;-80
2024/03/13 11:21:48;;;;;;;1.27;1.00;;;;;;;13.95;42.35;92513.31;5005149;28;20113;-81
2024/03/13 11:24:25;;;;;;;1.15;0.90;;;;;;;14.41;42.52;92505.97;5008994;28;20045;-81
2024/03/13 11:26:52;;;;;;;1.10;0.80;;;;;;;14.31;45.08;92498.38;5002718;28;20049;-81
2024/03/13 11:29:24;;;;;;;0.60;0.60;;;;;;;13.85;41.12;92497.81;5023479;28;20485;-81
2024/03/13 11:31:52;;;;;;;1.13;0.90;;;;;;;13.69;42.57;92513.25;5007326;28;20046;-80
2024/03/13 11:34:20;;;;;;;0.55;0.55;;;;;;;13.81;42.78;92502.13;5011552;28;20315;-81
2024/03/13 11:36:47;;;;;;;0.73;0.70;;;;;;;13.81;43.60;92507.41;5001101;28;20104;-81
2024/03/13 11:39:16;;;;;;;0.93;0.80;;;;;;;13.56;41.99;92494.94;5020585;28;20540;-82
2024/03/13 11:41:44;;;;;;;0.80;0.80;;;;;;;13.58;43.55;92498.00;5008849;28;20048;-81
2024/03/13 11:44:15;;;;;;;1.02;0.60;;;;;;;13.66;43.19;92494.66;5013480;28;20508;-82
2024/03/13 11:46:47;;;;;;;1.45;0.85;;;;;;;14.00;42.59;92485.31;5006477;28;20397;-82
2024/03/13 11:49:14;;;;;;;1.35;0.90;;;;;;;14.09;43.83;92483.47;5022208;28;20038;-82
2024/03/13 11:52:03;;;;;;;1.08;0.77;;;;;;;14.36;42.20;92485.03;5003471;28;20095;-82
2024/03/13 11:54:34;;;;;;;0.85;0.60;;;;;;;14.53;41.35;92479.00;5005512;28;20030;-82
2024/03/13 11:57:13;;;;;;;1.08;0.85;;;;;;;14.64;41.90;92474.25;5008255;28;20425;-82
2024/03/13 11:59:49;;;;;;;0.50;0.50;;;;;;;14.48;39.87;92489.72;5007825;28;20049;-82